• Join FlightAware (Why Join?)
  • Login
  • US Flag 
10:41AM EDT


 

Airport Tracker/Info


-or-


 

Live Flight TrackerFlight Track Log ✈ AWI3803 ✈ 20-Aug-2013 ✈ KDCA - KDTW

Flight Track Log - Related Links

Times and Time Zones

All times are in EDT time to prevent confusion due to time zone crossing. See the AWI3803 flight status page for this flight to view local times or setup timezone preferences in your user account.

Time Position Orientation Groundspeed Altitude Reporting Facility
EDT Latitude Longitude Course Direction KTS MPH feet Rate Location/Type
01:19PM 38.8333 -77.0333 326° Northwest 160 184 800  Level Potomac TRACON
01:20PM 38.7833 -77.0333 180° South 196 226 2,200 1,620 Climbing Potomac TRACON
01:21PM 38.7167 -77.0167 169° South 246 283 3,900 1,740 Climbing Potomac TRACON
01:22PM 39.0635 -77.2310 330° Northwest  Level FlightAware Approximate
01:22PM 38.6833 -77.1000 243° Southwest 278 320 5,700  Level Potomac TRACON
01:23PM 39.1388 -77.2944 339° North  Level FlightAware Approximate
01:23PM 38.6667 -77.1833 256° West 276 318 7,300  Level Potomac TRACON
01:24PM 39.2066 -77.3675 326° Northwest  Level FlightAware Approximate
01:24PM 38.6667 -77.2833 270° West 291 335 9,500  Level Potomac TRACON
01:25PM 38.7333 -77.3500 322° Northwest 290 334 11,600 1,440 Climbing Potomac TRACON
01:26PM 38.8167 -77.4167 328° Northwest 333 383 12,600 1,080 Climbing Potomac TRACON
01:27PM 38.9000 -77.4667 335° Northwest 334 384 14,000 1,320 Climbing Potomac TRACON
01:28PM 39.0000 -77.5333 333° Northwest 346 398 15,300 1,140 Climbing Potomac TRACON
01:30PM 39.1322 -77.5931 341° North 373 429 17,000 600 Climbing Washington Center
01:31PM 39.2303 -77.5931 360° North 362 417 17,000  Level Washington Center
01:32PM 39.3303 -77.5986 358° North 357 411 17,100 480 Climbing Washington Center
01:33PM 39.4103 -77.6786 322° Northwest 342 394 18,000 900 Climbing Washington Center
01:34PM 39.4814 -77.7775 313° West 357 411 19,000 960 Climbing Washington Center
01:35PM 39.5461 -77.8817 309° West 362 417 20,000 960 Climbing Washington Center
01:36PM 39.5831 -78.0094 291° West 372 428 21,000 900 Climbing Washington Center
01:37PM 39.6442 -78.2053 292° West 383 441 22,200 660 Climbing Cleveland Center
01:38PM 39.6803 -78.3389 289° West 389 448 22,600 540 Climbing Cleveland Center
01:39PM 39.7225 -78.4725 292° West 389 448 23,300 840 Climbing Cleveland Center
01:40PM 39.7603 -78.6036 291° West 389 448 24,300 900 Climbing Cleveland Center
01:41PM 39.7958 -78.7350 289° West 389 448 25,100 840 Climbing Cleveland Center
01:42PM 39.8353 -78.8664 291° West 389 448 26,000 900 Climbing Cleveland Center
01:43PM 39.8706 -78.9844 291° West 384 442 26,900 960 Climbing Cleveland Center
01:44PM 39.9075 -79.1136 290° West 384 442 28,000 540 Climbing Cleveland Center
01:45PM 39.9447 -79.2428 291° West 384 442 28,000  Level Cleveland Center
01:46PM 39.9836 -79.3692 292° West 384 442 28,000  Level Cleveland Center
01:47PM 40.0411 -79.4822 304° West 379 436 28,000  Level Cleveland Center
01:48PM 40.1006 -79.5978 304° West 379 436 28,000  Level Cleveland Center
01:49PM 40.1597 -79.7139 304° West 379 436 28,000  Level Cleveland Center
01:50PM 40.2189 -79.8272 304° West 379 436 28,000  Level Cleveland Center
01:51PM 40.2758 -79.9436 303° West 384 442 28,000  Level Cleveland Center
01:52PM 40.3328 -80.0603 303° West 384 442 28,000  Level Cleveland Center
01:53PM 40.3894 -80.1769 303° West 384 442 28,000  Level Cleveland Center
01:54PM 40.4503 -80.2939 304° West 384 442 28,000  Level Cleveland Center
01:55PM 40.5111 -80.4083 305° West 384 442 28,000  Level Cleveland Center
01:56PM 40.5758 -80.5367 304° West 391 450 28,000  Level Cleveland Center
01:57PM 40.6278 -80.6461 302° West 391 450 28,000  Level Cleveland Center
01:58PM 40.6925 -80.7747 304° West 396 456 28,000  Level Cleveland Center
01:59PM 40.7525 -80.8956 303° West 390 449 28,000  Level Cleveland Center
02:00PM 40.8106 -81.0139 303° West 390 449 28,000  Level Cleveland Center
02:01PM 40.8642 -81.1322 301° West 390 449 28,000  Level Cleveland Center
02:02PM 40.9219 -81.2508 303° West 390 449 28,000  Level Cleveland Center
02:03PM 40.9817 -81.3725 303° West 390 449 28,000  Level Cleveland Center
02:04PM 41.0369 -81.4917 302° West 390 449 28,000  Level Cleveland Center
02:05PM 41.0964 -81.6136 303° West 390 449 28,000 -540 Level Cleveland Center
02:06PM 41.1619 -81.7442 304° West 406 467 27,000 -1,260 Descending Cleveland Center
02:07PM 41.2314 -81.8836 304° West 433 498 25,500 -1,500 Descending Cleveland Center
02:08PM 41.2942 -82.0203 301° West 444 511 24,100 -1,140 Descending Cleveland Center
02:09PM 41.3569 -82.1628 300° West 444 511 23,300 -1,200 Descending Cleveland Center
02:10PM 41.4322 -82.2892 308° West 439 505 21,700 -1,560 Descending Cleveland Center
02:11PM 41.5075 -82.4158 308° West 439 505 20,200 -1,680 Descending Cleveland Center
02:12PM 41.5806 -82.5375 309° West 434 499 18,400 -1,740 Descending Cleveland Center
02:13PM 41.6333 -82.6167 312° West 416 479 17,300 -2,700 Descending Cleveland Center
02:13PM 41.6839 -82.7075 307° West 394 453 14,600 -3,720 Descending Cleveland Center
02:14PM 41.7100 -82.7556 306° West 406 467 12,600 -1,680 Descending Cleveland Center
02:15PM 41.7772 -82.8442 316° Northwest 367 422 12,000 -720 Descending Cleveland Center
02:16PM 41.8422 -82.9217 318° Northwest 334 384 11,200 -720 Descending Cleveland Center
02:16PM 41.8850 -82.9706 320° Northwest 313 360 11,000 -240 Descending Cleveland Center
02:17PM 41.9053 -82.9994 313° West 316 364 11,000  Level Cleveland Center
02:17PM 41.9481 -83.0456 321° Northwest 307 353 11,000  Level Cleveland Center
02:19PM 42.0150 -83.1264 318° Northwest 320 368 11,000  Level Cleveland Center
02:20PM 42.0861 -83.2161 317° Northwest 326 375 11,000  Level Cleveland Center
02:20PM 42.1519 -83.2467 341° North 264 304 11,000 -120 Level Cleveland Center
02:21PM 42.1769 -83.2478 358° North 253 291 10,900 -1,020 Descending Cleveland Center
02:21PM 42.2153 -83.2242 25° Northeast 244 281 10,000 -1,500 Descending Cleveland Center
02:23PM 42.2808 -83.1764 28° Northeast 232 267 8,500 -960 Descending Cleveland Center
02:24PM 42.3381 -83.1367 27° Northeast 219 252 8,000 -840 Descending Cleveland Center
02:25PM 42.3892 -83.0908 34° Northeast 229 264 6,800 -1,080 Descending Cleveland Center
02:26PM 42.4339 -83.0447 37° Northeast 210 242 6,000 -420 Descending Cleveland Center
02:27PM 42.4794 -83.0578 348° North 192 221 6,000  Level Cleveland Center
02:28PM 42.4778 -83.1394 268° West 208 239 6,000 -420 Level Cleveland Center
02:29PM 42.4267 -83.1825 212° Southwest 204 235 5,200 -960 Descending Cleveland Center
02:30PM 42.3778 -83.2169 207° Southwest 197 227 4,100 -1,080 Descending Cleveland Center
02:31PM 42.3356 -83.2517 211° Southwest 197 227 3,200 -1,020 Descending Cleveland Center
02:32PM 42.2889 -83.2833 207° Southwest 152 175 2,200 -840 Descending Cleveland Center
02:33PM 42.2528 -83.3100 209° Southwest 145 167 1,500 -720 Descending Cleveland Center